createdAt,value
2023-09-01T00:00:10.102Z,94368.00
2023-09-01T00:02:56.761Z,94367.40
2023-09-01T00:05:23.224Z,94370.60
2023-09-01T00:07:49.565Z,94369.20
2023-09-01T00:10:16.646Z,94373.00
2023-09-01T00:12:42.925Z,94376.20
2023-09-01T00:15:10.123Z,94376.00
2023-09-01T00:17:36.730Z,94370.80
2023-09-01T00:20:04.394Z,94366.60
2023-09-01T00:22:30.846Z,94370.20
2023-09-01T00:24:57.318Z,94365.60
2023-09-01T00:27:23.672Z,94371.40
2023-09-01T00:29:50.014Z,94371.60
2023-09-01T00:32:16.439Z,94371.40
2023-09-01T00:34:42.759Z,94371.40
2023-09-01T00:37:09.063Z,94369.80
2023-09-01T00:39:35.419Z,94362.00
2023-09-01T00:42:01.831Z,94358.60
2023-09-01T00:44:28.236Z,94363.00
2023-09-01T00:46:54.714Z,94371.80
2023-09-01T00:49:21.012Z,94369.80
2023-09-01T00:51:47.659Z,94361.20
2023-09-01T00:54:14.512Z,94355.00
2023-09-01T00:56:40.955Z,94359.60
2023-09-01T00:59:09.636Z,94359.40
2023-09-01T01:01:36.026Z,94359.60
2023-09-01T01:04:07.755Z,94362.40
2023-09-01T01:06:34.701Z,94364.80
2023-09-01T01:09:01.065Z,94366.80
2023-09-01T01:11:28.018Z,94368.20
2023-09-01T01:13:54.434Z,94367.00
2023-09-01T01:16:21.122Z,94370.40
2023-09-01T01:18:47.458Z,94370.00
2023-09-01T01:21:14.329Z,94374.00
2023-09-01T01:23:40.859Z,94375.80
2023-09-01T01:26:08.909Z,94377.00
2023-09-01T01:28:35.429Z,94375.00
2023-09-01T01:31:02.147Z,94375.60
2023-09-01T01:33:28.590Z,94372.00
2023-09-01T01:35:54.825Z,94370.00
2023-09-01T01:38:21.209Z,94371.00
2023-09-01T01:40:47.565Z,94371.20
2023-09-01T01:43:14.418Z,94377.20
2023-09-01T01:45:41.181Z,94373.00
2023-09-01T01:48:08.393Z,94365.00
2023-09-01T01:50:35.958Z,94365.60
2023-09-01T01:53:06.101Z,94367.40
2023-09-01T01:55:33.843Z,94371.60
2023-09-01T01:58:00.042Z,94370.40
2023-09-01T02:00:30.034Z,94368.80
2023-09-01T02:02:56.623Z,94366.00
2023-09-01T02:05:23.060Z,94368.40
2023-09-01T02:07:49.406Z,94365.80
2023-09-01T02:10:15.812Z,94371.60
2023-09-01T02:12:42.150Z,94375.20
2023-09-01T02:15:09.498Z,94374.20
2023-09-01T02:17:36.311Z,94378.40
2023-09-01T02:20:02.749Z,94385.40
2023-09-01T02:22:29.057Z,94387.20
2023-09-01T02:24:55.585Z,94385.60
2023-09-01T02:27:22.220Z,94385.80
2023-09-01T02:29:48.694Z,94374.00
2023-09-01T02:32:14.965Z,94372.60
2023-09-01T02:34:41.289Z,94370.40
2023-09-01T02:37:07.579Z,94373.20
2023-09-01T02:39:33.867Z,94381.00
2023-09-01T02:42:00.848Z,94368.20
2023-09-01T02:44:27.387Z,94363.00
2023-09-01T02:46:53.706Z,94368.00
2023-09-01T02:49:19.935Z,94374.40
2023-09-01T02:51:49.391Z,94379.00
2023-09-01T02:54:16.130Z,94377.40
2023-09-01T02:56:42.774Z,94379.80
2023-09-01T02:59:09.384Z,94380.20
2023-09-01T03:01:35.665Z,94372.40
2023-09-01T03:04:07.191Z,94367.00
2023-09-01T03:06:33.542Z,94376.60
2023-09-01T03:08:59.771Z,94382.60
2023-09-01T03:11:27.258Z,94383.00
2023-09-01T03:13:53.581Z,94377.60
2023-09-01T03:16:20.131Z,94379.40
2023-09-01T03:18:46.442Z,94370.00
2023-09-01T03:21:15.388Z,94371.40
2023-09-01T03:23:42.477Z,94374.60
2023-09-01T03:26:09.362Z,94381.60
2023-09-01T03:28:35.718Z,94383.60
2023-09-01T03:31:03.197Z,94381.80
2023-09-01T03:33:29.436Z,94379.80
2023-09-01T03:35:55.995Z,94378.60
2023-09-01T03:38:22.355Z,94384.20
2023-09-01T03:40:48.699Z,94385.00
2023-09-01T03:43:15.652Z,94384.40
2023-09-01T03:45:41.975Z,94383.80
2023-09-01T03:48:08.317Z,94382.60
2023-09-01T03:50:34.707Z,94381.80
2023-09-01T03:53:01.817Z,94388.00
2023-09-01T03:55:28.207Z,94389.40
2023-09-01T03:57:54.723Z,94388.20
2023-09-01T04:00:21.015Z,94383.40
2023-09-01T04:02:47.761Z,94383.80
2023-09-01T04:05:14.721Z,94384.20
2023-09-01T04:07:41.092Z,94388.00
2023-09-01T04:10:07.865Z,94387.20
2023-09-01T04:12:35.108Z,94388.80
2023-09-01T04:15:01.443Z,94391.20
2023-09-01T04:17:27.982Z,94396.00
2023-09-01T04:19:54.258Z,94396.80
2023-09-01T04:22:20.656Z,94397.60
2023-09-01T04:24:46.866Z,94399.00
2023-09-01T04:27:13.415Z,94402.60
2023-09-01T04:29:43.153Z,94402.20
2023-09-01T04:32:13.268Z,94402.60
2023-09-01T04:34:39.616Z,94397.40
2023-09-01T04:37:06.036Z,94401.20
2023-09-01T04:39:32.525Z,94406.80
2023-09-01T04:41:59.026Z,94412.40
2023-09-01T04:44:25.475Z,94409.40
2023-09-01T04:46:51.884Z,94401.80
2023-09-01T04:49:18.395Z,94411.20
2023-09-01T04:51:44.823Z,94412.80
2023-09-01T04:54:11.028Z,94415.00
2023-09-01T04:56:37.360Z,94409.80
2023-09-01T04:59:03.634Z,94411.40
2023-09-01T05:01:30.236Z,94409.40
2023-09-01T05:03:56.901Z,94417.80
2023-09-01T05:06:24.435Z,94406.60
2023-09-01T05:08:50.715Z,94402.40
2023-09-01T05:11:17.274Z,94404.20
2023-09-01T05:13:43.629Z,94399.20
2023-09-01T05:16:11.137Z,94393.20
2023-09-01T05:18:37.877Z,94384.00
2023-09-01T05:21:04.162Z,94386.20
2023-09-01T05:23:32.887Z,94389.60
2023-09-01T05:25:59.515Z,94394.20
2023-09-01T05:28:25.838Z,94400.60
2023-09-01T05:30:52.458Z,94397.40
2023-09-01T05:33:19.431Z,94399.00
2023-09-01T05:35:45.707Z,94396.40
2023-09-01T05:38:12.284Z,94396.60
2023-09-01T05:40:39.103Z,94400.60
2023-09-01T05:43:07.856Z,94399.60
2023-09-01T05:45:36.259Z,94400.00
2023-09-01T05:48:02.753Z,94400.20
2023-09-01T05:50:29.011Z,94414.00
2023-09-01T05:52:55.258Z,94423.60
2023-09-01T05:55:21.597Z,94422.00
2023-09-01T05:57:48.688Z,94427.80
2023-09-01T06:00:15.817Z,94422.80
2023-09-01T06:02:42.273Z,94423.00
2023-09-01T06:05:08.727Z,94433.40
2023-09-01T06:07:35.124Z,94422.40
2023-09-01T06:10:01.482Z,94424.60
2023-09-01T06:12:28.039Z,94428.80
2023-09-01T06:14:54.299Z,94430.00
2023-09-01T06:17:29.531Z,94431.40
2023-09-01T06:20:05.130Z,94430.60
2023-09-01T06:22:31.501Z,94435.60
2023-09-01T06:24:57.903Z,94431.60
2023-09-01T06:27:24.262Z,94430.80
2023-09-01T06:29:50.542Z,94426.20
2023-09-01T06:32:16.835Z,94434.00
2023-09-01T06:34:43.140Z,94441.00
2023-09-01T06:37:09.490Z,94439.80
2023-09-01T06:39:35.876Z,94438.60
2023-09-01T06:42:02.514Z,94442.40
2023-09-01T06:44:28.859Z,94449.40
2023-09-01T06:46:55.070Z,94444.40
2023-09-01T06:49:21.783Z,94443.60
2023-09-01T06:51:48.161Z,94447.40
2023-09-01T06:54:14.621Z,94449.20
2023-09-01T06:56:41.076Z,94443.40
2023-09-01T06:59:08.037Z,94441.60
2023-09-01T07:01:34.428Z,94441.20
2023-09-01T07:04:01.103Z,94444.80
2023-09-01T07:06:27.980Z,94439.60
2023-09-01T07:08:54.261Z,94442.00
2023-09-01T07:11:21.752Z,94443.00
2023-09-01T07:13:48.112Z,94446.40
2023-09-01T07:16:14.886Z,94448.40
2023-09-01T07:18:41.402Z,94452.20
2023-09-01T07:21:07.840Z,94449.40
2023-09-01T07:23:34.291Z,94448.60
2023-09-01T07:26:00.697Z,94453.60
2023-09-01T07:28:26.997Z,94449.80
2023-09-01T07:30:54.081Z,94444.60
2023-09-01T07:33:20.418Z,94440.40
2023-09-01T07:35:47.226Z,94439.80
2023-09-01T07:38:15.082Z,94444.00
2023-09-01T07:40:41.694Z,94437.40
2023-09-01T07:43:09.066Z,94440.00
2023-09-01T07:45:36.366Z,94440.00
2023-09-01T07:48:19.013Z,94444.40
2023-09-01T07:50:49.419Z,94449.80
2023-09-01T07:53:15.721Z,94451.60
2023-09-01T07:55:42.270Z,94452.40
2023-09-01T07:58:11.951Z,94452.20
2023-09-01T08:00:40.574Z,94455.00
2023-09-01T08:03:11.187Z,94461.80
2023-09-01T08:05:38.337Z,94457.60
2023-09-01T08:08:04.704Z,94454.80
2023-09-01T08:10:31.263Z,94456.20
2023-09-01T08:12:57.669Z,94456.80
2023-09-01T08:15:23.930Z,94455.80
2023-09-01T08:17:53.078Z,94457.20
2023-09-01T08:20:19.512Z,94455.00
2023-09-01T08:22:45.768Z,94452.00
2023-09-01T08:25:12.265Z,94456.00
2023-09-01T08:27:38.558Z,94456.40
2023-09-01T08:30:04.902Z,94455.60
2023-09-01T08:32:31.334Z,94452.60
2023-09-01T08:34:57.972Z,94453.80
2023-09-01T08:37:24.197Z,94451.40
2023-09-01T08:39:50.480Z,94452.00
2023-09-01T08:42:18.213Z,94450.80
2023-09-01T08:44:44.453Z,94452.20
2023-09-01T08:47:11.393Z,94454.00
2023-09-01T08:49:40.039Z,94454.20
2023-09-01T08:52:06.541Z,94451.80
2023-09-01T08:54:35.206Z,94449.00
2023-09-01T08:57:01.506Z,94446.00
2023-09-01T08:59:29.390Z,94446.60
2023-09-01T09:01:55.999Z,94443.40
2023-09-01T09:04:22.429Z,94440.00
2023-09-01T09:06:48.781Z,94440.60
2023-09-01T09:09:18.635Z,94449.40
2023-09-01T09:11:45.030Z,94446.60
2023-09-01T09:14:11.556Z,94447.60
2023-09-01T09:16:37.997Z,94452.60
2023-09-01T09:19:05.516Z,94458.40
2023-09-01T09:21:32.092Z,94459.40
2023-09-01T09:24:19.735Z,94457.00
2023-09-01T09:26:47.261Z,94450.00
2023-09-01T09:29:15.085Z,94445.80
2023-09-01T09:31:41.541Z,94456.00
2023-09-01T09:34:08.151Z,94451.20
2023-09-01T09:36:37.196Z,94448.20
2023-09-01T09:39:06.715Z,94451.40
2023-09-01T09:41:33.184Z,94457.20
2023-09-01T09:43:59.455Z,94466.20
2023-09-01T09:46:27.014Z,94465.20
2023-09-01T09:48:54.838Z,94464.60
2023-09-01T09:51:21.170Z,94462.80
2023-09-01T09:53:47.422Z,94461.20
2023-09-01T09:56:13.823Z,94459.20
2023-09-01T09:58:40.176Z,94456.60
2023-09-01T10:01:06.671Z,94457.20
2023-09-01T10:03:33.130Z,94460.00
2023-09-01T10:05:59.710Z,94463.40
2023-09-01T10:08:26.147Z,94462.00
2023-09-01T10:10:52.413Z,94464.20
2023-09-01T10:13:18.673Z,94470.00
2023-09-01T10:15:45.165Z,94464.00
2023-09-01T10:18:11.652Z,94459.60
2023-09-01T10:20:38.332Z,94460.60
2023-09-01T10:23:04.732Z,94462.20
2023-09-01T10:25:32.135Z,94462.20
2023-09-01T10:27:58.548Z,94460.20
2023-09-01T10:30:24.802Z,94461.60
2023-09-01T10:32:51.372Z,94463.40
2023-09-01T10:35:17.720Z,94467.00
2023-09-01T10:37:44.184Z,94463.20
2023-09-01T10:40:10.464Z,94459.80
2023-09-01T10:42:36.780Z,94463.60
2023-09-01T10:45:03.554Z,94462.20
2023-09-01T10:47:29.965Z,94461.20
2023-09-01T10:49:56.524Z,94464.00
2023-09-01T10:52:23.837Z,94459.60
2023-09-01T10:54:50.343Z,94460.40
2023-09-01T10:57:16.596Z,94465.60
2023-09-01T10:59:44.308Z,94467.60
2023-09-01T11:02:11.760Z,94467.20
2023-09-01T11:04:39.586Z,94467.00
2023-09-01T11:07:08.660Z,94464.60
2023-09-01T11:09:34.951Z,94465.80
2023-09-01T11:12:01.221Z,94462.80
2023-09-01T11:14:27.672Z,94467.00
2023-09-01T11:16:54.088Z,94471.80
2023-09-01T11:19:20.494Z,94469.40
2023-09-01T11:21:46.796Z,94470.40
2023-09-01T11:24:13.695Z,94469.40
2023-09-01T11:26:42.143Z,94473.00
2023-09-01T11:29:09.420Z,94469.00
2023-09-01T11:31:35.687Z,94471.80
2023-09-01T11:34:02.564Z,94465.00
2023-09-01T11:36:29.047Z,94462.20
2023-09-01T11:38:55.796Z,94461.00
2023-09-01T11:41:22.252Z,94465.00
2023-09-01T11:43:48.780Z,94463.20
2023-09-01T11:46:15.277Z,94463.60
2023-09-01T11:48:41.782Z,94462.20
2023-09-01T11:51:09.344Z,94457.80
2023-09-01T11:53:36.251Z,94460.80
2023-09-01T11:56:02.710Z,94452.60
2023-09-01T11:58:28.995Z,94453.40
2023-09-01T12:00:55.930Z,94463.20
2023-09-01T12:03:22.725Z,94456.00
2023-09-01T12:05:49.536Z,94453.40
2023-09-01T12:08:15.745Z,94458.80
2023-09-01T12:10:41.960Z,94458.00
2023-09-01T12:13:08.487Z,94459.80
2023-09-01T12:15:35.439Z,94456.40
2023-09-01T12:18:02.175Z,94454.80
2023-09-01T12:20:29.240Z,94450.00
2023-09-01T12:22:55.692Z,94449.20
2023-09-01T12:25:21.943Z,94453.20
2023-09-01T12:27:51.833Z,94452.00
2023-09-01T12:30:18.218Z,94454.60
2023-09-01T12:32:44.506Z,94456.60
2023-09-01T12:35:11.121Z,94455.20
2023-09-01T12:37:37.684Z,94454.00
2023-09-01T12:40:05.340Z,94451.40
2023-09-01T12:42:32.040Z,94450.60
2023-09-01T12:44:58.348Z,94451.00
2023-09-01T12:47:24.540Z,94454.40
2023-09-01T12:49:51.056Z,94452.60
2023-09-01T12:52:18.178Z,94454.00
2023-09-01T12:54:44.492Z,94452.00
2023-09-01T12:57:10.800Z,94453.20
2023-09-01T12:59:38.273Z,94456.00
2023-09-01T13:02:05.087Z,94456.60
2023-09-01T13:04:33.633Z,94455.00
2023-09-01T13:07:00.136Z,94459.20
2023-09-01T13:09:26.424Z,94453.60
2023-09-01T13:11:53.081Z,94459.80
2023-09-01T13:14:22.143Z,94463.00
2023-09-01T13:16:50.680Z,94463.00
2023-09-01T13:19:17.256Z,94461.80
2023-09-01T13:21:43.645Z,94457.60
2023-09-01T13:24:10.579Z,94463.20
2023-09-01T13:26:36.955Z,94459.20
2023-09-01T13:29:03.730Z,94460.80
2023-09-01T13:31:30.174Z,94465.80
2023-09-01T13:33:57.155Z,94464.80
2023-09-01T13:36:24.539Z,94463.60
2023-09-01T13:38:51.254Z,94464.20
2023-09-01T13:41:18.896Z,94466.20
2023-09-01T13:43:45.412Z,94462.60
2023-09-01T13:46:11.796Z,94463.00
2023-09-01T13:48:38.119Z,94462.60
2023-09-01T13:51:04.753Z,94458.20
2023-09-01T13:53:31.138Z,94463.60
2023-09-01T13:55:57.340Z,94462.60
2023-09-01T13:58:23.898Z,94463.60
2023-09-01T14:00:50.316Z,94468.20
2023-09-01T14:03:16.935Z,94468.20
2023-09-01T14:05:43.847Z,94468.40
2023-09-01T14:08:10.192Z,94470.00
2023-09-01T14:10:36.584Z,94466.60
2023-09-01T14:13:05.403Z,94467.40
2023-09-01T14:15:32.256Z,94464.40
2023-09-01T14:17:58.685Z,94462.60
2023-09-01T14:20:27.373Z,94468.00
2023-09-01T14:22:55.166Z,94469.40
2023-09-01T14:25:21.477Z,94469.00
2023-09-01T14:27:50.120Z,94468.60
2023-09-01T14:30:16.405Z,94463.80
2023-09-01T14:32:42.689Z,94469.60
2023-09-01T14:35:09.208Z,94475.60
2023-09-01T14:37:35.576Z,94475.60
2023-09-01T14:40:03.869Z,94479.00
2023-09-01T14:42:30.145Z,94477.40
2023-09-01T14:44:56.359Z,94478.60
2023-09-01T14:47:25.258Z,94482.00
2023-09-01T14:49:51.831Z,94483.60
2023-09-01T14:52:19.325Z,94484.20
2023-09-01T14:54:45.678Z,94487.00
2023-09-01T14:57:12.162Z,94487.40
2023-09-01T14:59:38.395Z,94483.40
2023-09-01T15:02:06.033Z,94484.60
2023-09-01T15:04:32.404Z,94483.00
2023-09-01T15:06:58.943Z,94478.20
2023-09-01T15:09:25.349Z,94475.80
2023-09-01T15:11:51.975Z,94476.00
2023-09-01T15:14:18.786Z,94478.00
2023-09-01T15:16:45.388Z,94479.00
2023-09-01T15:19:13.696Z,94480.40
2023-09-01T15:21:40.362Z,94481.40
2023-09-01T15:24:06.657Z,94487.40
2023-09-01T15:26:33.451Z,94481.60
2023-09-01T15:28:59.817Z,94482.00
2023-09-01T15:31:26.252Z,94482.60
2023-09-01T15:33:53.016Z,94480.60
2023-09-01T15:36:19.270Z,94478.00
2023-09-01T15:38:45.567Z,94478.80
2023-09-01T15:41:12.649Z,94480.40
2023-09-01T15:43:39.187Z,94479.40
2023-09-01T15:46:05.514Z,94481.00
2023-09-01T15:48:32.133Z,94477.00
2023-09-01T15:50:58.720Z,94483.40
2023-09-01T15:53:26.872Z,94480.40
2023-09-01T15:55:56.146Z,94478.20
2023-09-01T15:58:22.503Z,94478.00
2023-09-01T16:00:48.713Z,94482.60
2023-09-01T16:03:23.273Z,94479.40
2023-09-01T16:05:55.635Z,94480.00
2023-09-01T16:08:22.085Z,94475.80
2023-09-01T16:10:48.439Z,94474.80
2023-09-01T16:13:15.578Z,94473.20
2023-09-01T16:15:42.673Z,94477.80
2023-09-01T16:18:09.034Z,94475.60
2023-09-01T16:20:36.013Z,94478.40
2023-09-01T16:23:02.521Z,94479.80
2023-09-01T16:25:28.924Z,94482.40
2023-09-01T16:27:55.412Z,94483.80
2023-09-01T16:30:21.898Z,94482.60
2023-09-01T16:32:48.173Z,94475.80
2023-09-01T16:35:24.043Z,94476.60
2023-09-01T16:37:51.348Z,94476.00
2023-09-01T16:40:17.611Z,94481.00
2023-09-01T16:42:44.324Z,94476.80
2023-09-01T16:45:10.648Z,94479.20
2023-09-01T16:47:37.005Z,94477.40
2023-09-01T16:50:04.322Z,94476.60
2023-09-01T16:52:30.653Z,94480.40
2023-09-01T16:54:57.085Z,94478.20
2023-09-01T16:57:23.648Z,94479.40
2023-09-01T16:59:49.913Z,94478.80
2023-09-01T17:02:16.367Z,94479.20
2023-09-01T17:04:42.843Z,94482.00
2023-09-01T17:07:09.354Z,94482.60
2023-09-01T17:09:35.905Z,94486.20
2023-09-01T17:12:02.755Z,94483.20
2023-09-01T17:14:29.382Z,94489.60
2023-09-01T17:16:55.842Z,94490.40
2023-09-01T17:19:24.216Z,94488.20
2023-09-01T17:21:51.929Z,94485.20
2023-09-01T17:24:18.542Z,94488.60
2023-09-01T17:26:45.150Z,94487.60
2023-09-01T17:29:13.573Z,94491.40
2023-09-01T17:31:40.842Z,94490.80
2023-09-01T17:34:07.292Z,94488.00
2023-09-01T17:36:34.055Z,94489.80
2023-09-01T17:39:00.384Z,94494.00
2023-09-01T17:41:26.972Z,94491.20
2023-09-01T17:43:54.611Z,94495.00
2023-09-01T17:46:20.926Z,94492.60
2023-09-01T17:48:47.396Z,94498.20
2023-09-01T17:51:13.741Z,94497.40
2023-09-01T17:53:40.158Z,94500.60
2023-09-01T17:56:07.850Z,94508.60
2023-09-01T17:58:34.153Z,94512.00
2023-09-01T18:01:00.561Z,94508.20
2023-09-01T18:03:26.893Z,94514.20
2023-09-01T18:05:53.388Z,94508.20
2023-09-01T18:08:19.930Z,94512.00
2023-09-01T18:10:46.492Z,94514.60
2023-09-01T18:13:15.324Z,94516.80
2023-09-01T18:15:42.530Z,94518.40
2023-09-01T18:18:08.844Z,94519.00
2023-09-01T18:20:35.724Z,94523.00
2023-09-01T18:23:02.322Z,94527.20
2023-09-01T18:25:28.960Z,94524.00
2023-09-01T18:27:55.292Z,94525.00
2023-09-01T18:30:21.804Z,94526.80
2023-09-01T18:32:48.172Z,94531.40
2023-09-01T18:35:15.576Z,94531.00
2023-09-01T18:37:44.304Z,94528.40
2023-09-01T18:40:10.570Z,94530.60
2023-09-01T18:42:42.059Z,94527.20
2023-09-01T18:45:11.489Z,94525.00
2023-09-01T18:47:37.828Z,94527.80
2023-09-01T18:50:04.212Z,94525.40
2023-09-01T18:52:30.678Z,94524.80
2023-09-01T18:54:56.956Z,94524.80
2023-09-01T18:57:23.498Z,94534.40
2023-09-01T18:59:53.069Z,94531.60
2023-09-01T19:02:21.944Z,94533.00
2023-09-01T19:04:48.223Z,94530.00
2023-09-01T19:07:16.883Z,94532.40
2023-09-01T19:09:43.129Z,94535.00
2023-09-01T19:12:11.644Z,94535.60
2023-09-01T19:14:37.869Z,94532.00
2023-09-01T19:17:04.226Z,94536.00
2023-09-01T19:19:30.959Z,94536.80
2023-09-01T19:21:57.333Z,94536.80
2023-09-01T19:24:26.627Z,94536.80
2023-09-01T19:26:54.830Z,94533.40
2023-09-01T19:29:22.562Z,94537.40
2023-09-01T19:31:51.777Z,94533.20
2023-09-01T19:34:18.200Z,94533.60
2023-09-01T19:36:46.395Z,94540.00
2023-09-01T19:39:12.668Z,94544.60
2023-09-01T19:41:39.484Z,94541.80
2023-09-01T19:44:07.558Z,94545.60
2023-09-01T19:46:35.447Z,94548.20
2023-09-01T19:49:01.712Z,94543.80
2023-09-01T19:51:28.012Z,94545.60
2023-09-01T19:53:54.565Z,94545.60
2023-09-01T19:56:21.082Z,94548.20
2023-09-01T19:58:47.427Z,94551.20
2023-09-01T20:01:15.152Z,94543.80
2023-09-01T20:03:43.616Z,94541.40
2023-09-01T20:06:09.878Z,94540.60
2023-09-01T20:08:36.142Z,94546.60
2023-09-01T20:11:05.884Z,94549.20
2023-09-01T20:13:32.223Z,94548.20
2023-09-01T20:15:58.482Z,94555.60
2023-09-01T20:18:24.797Z,94555.00
2023-09-01T20:20:51.151Z,94556.80
2023-09-01T20:23:17.892Z,94559.00
2023-09-01T20:25:44.446Z,94567.20
2023-09-01T20:28:10.792Z,94567.60
2023-09-01T20:30:37.063Z,94565.40
2023-09-01T20:33:04.018Z,94567.60
2023-09-01T20:35:30.437Z,94566.40
2023-09-01T20:37:57.299Z,94565.20
2023-09-01T20:40:24.301Z,94556.80
2023-09-01T20:42:50.639Z,94566.60
2023-09-01T20:45:16.983Z,94568.00
2023-09-01T20:47:45.168Z,94564.40
2023-09-01T20:50:11.513Z,94569.20
2023-09-01T20:52:37.757Z,94565.20
2023-09-01T20:55:07.130Z,94565.00
2023-09-01T20:57:33.360Z,94574.80
2023-09-01T20:59:59.692Z,94573.60
2023-09-01T21:02:26.039Z,94566.40
2023-09-01T21:04:52.319Z,94561.80
2023-09-01T21:07:18.780Z,94565.40
2023-09-01T21:09:45.648Z,94563.00
2023-09-01T21:12:11.956Z,94561.40
2023-09-01T21:14:38.700Z,94559.40
2023-09-01T21:17:05.046Z,94562.20
2023-09-01T21:19:31.547Z,94554.40
2023-09-01T21:21:57.928Z,94549.60
2023-09-01T21:24:24.193Z,94549.80
2023-09-01T21:26:52.549Z,94551.40
2023-09-01T21:29:18.931Z,94552.20
2023-09-01T21:31:46.510Z,94554.20
2023-09-01T21:34:13.269Z,94555.60
2023-09-01T21:36:40.121Z,94560.00
2023-09-01T21:39:06.887Z,94557.20
2023-09-01T21:41:33.197Z,94552.20
2023-09-01T21:44:01.687Z,94552.20
2023-09-01T21:46:28.190Z,94553.60
2023-09-01T21:48:54.409Z,94555.80
2023-09-01T21:51:20.627Z,94553.00
2023-09-01T21:53:47.212Z,94553.60
2023-09-01T21:56:13.675Z,94548.20
2023-09-01T21:58:40.013Z,94549.40
2023-09-01T22:01:06.434Z,94549.80
2023-09-01T22:03:32.973Z,94550.80
2023-09-01T22:05:59.692Z,94552.40
2023-09-01T22:08:25.938Z,94548.80
2023-09-01T22:10:52.342Z,94551.20
2023-09-01T22:13:18.822Z,94547.40
2023-09-01T22:15:45.691Z,94542.00
2023-09-01T22:18:12.087Z,94541.80
2023-09-01T22:20:38.679Z,94536.40
2023-09-01T22:23:05.571Z,94535.80
2023-09-01T22:25:32.054Z,94540.60
2023-09-01T22:27:59.317Z,94543.40
2023-09-01T22:30:26.321Z,94540.80
2023-09-01T22:32:55.086Z,94541.80
2023-09-01T22:35:22.646Z,94538.20
2023-09-01T22:37:54.362Z,94537.00
2023-09-01T22:40:29.852Z,94537.80
2023-09-01T22:42:56.486Z,94531.80
2023-09-01T22:45:25.716Z,94528.20
2023-09-01T22:47:52.342Z,94527.20
2023-09-01T22:50:20.105Z,94528.80
2023-09-01T22:52:48.096Z,94523.80
2023-09-01T22:55:14.648Z,94527.00
2023-09-01T22:57:41.093Z,94530.20
2023-09-01T23:00:07.512Z,94527.20
2023-09-01T23:02:33.854Z,94530.80
2023-09-01T23:05:00.249Z,94520.60
2023-09-01T23:07:26.564Z,94522.80
2023-09-01T23:09:52.864Z,94524.00
2023-09-01T23:12:19.125Z,94526.60
2023-09-01T23:14:45.393Z,94525.20
2023-09-01T23:17:11.747Z,94525.60
2023-09-01T23:19:38.638Z,94528.80
2023-09-01T23:22:04.960Z,94526.40
2023-09-01T23:24:31.752Z,94522.80
2023-09-01T23:27:01.203Z,94521.20
2023-09-01T23:29:27.491Z,94525.80
2023-09-01T23:31:53.767Z,94524.00
2023-09-01T23:34:21.405Z,94523.80
2023-09-01T23:36:47.895Z,94522.20
2023-09-01T23:39:14.144Z,94519.60
2023-09-01T23:41:44.941Z,94518.60
2023-09-01T23:44:11.239Z,94519.40
2023-09-01T23:46:38.744Z,94517.00
2023-09-01T23:49:06.746Z,94510.40
2023-09-01T23:51:33.121Z,94510.00
2023-09-01T23:54:01.784Z,94508.40
2023-09-01T23:56:28.155Z,94512.20
2023-09-01T23:58:54.614Z,94509.00
